Aurora, SD

9:09 PM CDT on August 29, 2014 (GMT -0500)
Neighborhood | Change Station
CLOSE
Current Station
Personal Weather Station
Location: Brookings, SD
Elevation: 1627 ft
Nearby Weather Stations

Elev 1627 ft 44.29 °N, 96.78 °W | Updated 1 minute ago

Partly Cloudy
Partly Cloudy
68.2 °F
Feels Like 68.2 °F
N
0.0
Wind Variable Wind from South
Gusts 0.0 mph

Today
High -- | Low -- °F
--% Chance of Precip.
Yesterday
High -- | Low -- °F
Precip. -- in
6:46 AM 8:08 PM
Waxing Crescent, 18% visible
Pressure 29.83 in
Visibility 10.0 miles
Clouds Clear
Dew Point 67 °F
Humidity 95%
Rainfall 0.02 in
Snow Depth Not available.
UV 0.0 out of 12
Pollen 8.60 out of 12
Air Quality Not available.
Flu Activity Not available.
METAR KMDS 300150Z AUTO 28003KT 10SM CLR 19/19 A2983 RMK AO2

More Conditions Fewer Conditions

Pressure 29.83 in
Visibility 10.0 miles
Clouds Clear
Dew Point 67 °F
Humidity 95%
Rainfall 0.02 in
Snow Depth Not available.
UV 0.0 out of 12
Pollen 8.60 out of 12
Air Quality Not available.
Flu Activity Not available.
METAR KMDS 300150Z AUTO 28003KT 10SM CLR 19/19 A2983 RMK AO2

More Conditions Fewer Conditions

10-Day Weather Forecast

Almanac

Astronomy

Aug. 29, 2014 Rise Set
Actual Time 6:46 AM CDT 8:08 PM CDT
Civil Twilight 6:16 AM CDT 8:38 PM CDT
Nautical Twilight 5:39 AM CDT 9:14 PM CDT
Astronomical Twilight 5:01 AM CDT 9:53 PM CDT
Moon 10:47 AM CDT (8/29) 9:55 PM CDT (8/29)
Length of Visible Light 14h 22m
Length of Day
13h 22m
Tomorrow will be 2m 55s shorter.
Waxing Crescent, 18% of the Moon is Illuminated
Today
Waxing Crescent
Sep 2
First Quarter
Sep 8
Full
Sep 15
Last Quarter
Sep 24
New

Today's Extremes

State Highs State Lows

Community

WunderPhotos

Upload Photos

1,748,405 photos uploaded!

Nearby

Snow Depth

Station Depth Elevation
Blind Park 0 in 6890 ft

Earthquake Activity

City Distance Mag. Time & Date
No recent earthquake activity has been reported nearby.
Minimum magnitude displayed is 2.5.

Coastal Water Temperatures

Place Temperature
No Stations Reporting

Nearby Weather Stations